sensor_id;sensor_type;location;lat;lon;timestamp;P1;durP1;ratioP1;P2;durP2;ratioP2
25639;SDS011;13497;48.322;16.204;2024-03-22T00:02:01;17.48;;;15.68;;
25639;SDS011;13497;48.322;16.204;2024-03-22T00:04:27;20.52;;;17.85;;
25639;SDS011;13497;48.322;16.204;2024-03-22T00:06:53;19.25;;;14.43;;
25639;SDS011;13497;48.322;16.204;2024-03-22T00:09:18;19.45;;;17.45;;
25639;SDS011;13497;48.322;16.204;2024-03-22T00:11:44;19.83;;;17.83;;
25639;SDS011;13497;48.322;16.204;2024-03-22T00:14:10;21.42;;;18.52;;
25639;SDS011;13497;48.322;16.204;2024-03-22T00:16:36;19.27;;;16.50;;
25639;SDS011;13497;48.322;16.204;2024-03-22T00:19:02;21.73;;;19.45;;
25639;SDS011;13497;48.322;16.204;2024-03-22T00:21:29;22.45;;;20.25;;
25639;SDS011;13497;48.322;16.204;2024-03-22T00:23:55;21.88;;;19.48;;
25639;SDS011;13497;48.322;16.204;2024-03-22T00:26:22;21.27;;;19.13;;
25639;SDS011;13497;48.322;16.204;2024-03-22T00:28:48;21.65;;;17.92;;
25639;SDS011;13497;48.322;16.204;2024-03-22T00:31:14;20.52;;;18.33;;
25639;SDS011;13497;48.322;16.204;2024-03-22T00:33:40;25.25;;;20.45;;
25639;SDS011;13497;48.322;16.204;2024-03-22T00:36:06;22.15;;;19.75;;
25639;SDS011;13497;48.322;16.204;2024-03-22T00:38:32;22.45;;;20.02;;
25639;SDS011;13497;48.322;16.204;2024-03-22T00:40:58;19.10;;;14.60;;
25639;SDS011;13497;48.322;16.204;2024-03-22T00:43:24;23.48;;;20.85;;
25639;SDS011;13497;48.322;16.204;2024-03-22T00:45:49;23.00;;;20.52;;
25639;SDS011;13497;48.322;16.204;2024-03-22T00:48:15;23.00;;;20.55;;
25639;SDS011;13497;48.322;16.204;2024-03-22T00:50:41;26.13;;;23.52;;
25639;SDS011;13497;48.322;16.204;2024-03-22T00:53:06;23.23;;;20.67;;
25639;SDS011;13497;48.322;16.204;2024-03-22T00:55:33;30.02;;;23.10;;
25639;SDS011;13497;48.322;16.204;2024-03-22T00:57:58;24.40;;;21.60;;
25639;SDS011;13497;48.322;16.204;2024-03-22T01:00:24;26.10;;;21.27;;
25639;SDS011;13497;48.322;16.204;2024-03-22T01:02:50;27.98;;;21.63;;
25639;SDS011;13497;48.322;16.204;2024-03-22T01:05:18;27.85;;;24.00;;
25639;SDS011;13497;48.322;16.204;2024-03-22T01:07:44;26.38;;;23.50;;
25639;SDS011;13497;48.322;16.204;2024-03-22T01:10:10;27.17;;;24.27;;
25639;SDS011;13497;48.322;16.204;2024-03-22T01:12:37;23.77;;;21.30;;
25639;SDS011;13497;48.322;16.204;2024-03-22T01:15:04;27.95;;;24.67;;
25639;SDS011;13497;48.322;16.204;2024-03-22T01:17:34;24.50;;;17.05;;
25639;SDS011;13497;48.322;16.204;2024-03-22T01:19:59;30.50;;;22.70;;
25639;SDS011;13497;48.322;16.204;2024-03-22T01:22:25;28.83;;;25.75;;
25639;SDS011;13497;48.322;16.204;2024-03-22T01:24:51;30.75;;;25.77;;
25639;SDS011;13497;48.322;16.204;2024-03-22T01:27:16;30.58;;;24.60;;
25639;SDS011;13497;48.322;16.204;2024-03-22T01:29:42;29.85;;;25.65;;
25639;SDS011;13497;48.322;16.204;2024-03-22T01:32:08;28.15;;;25.15;;
25639;SDS011;13497;48.322;16.204;2024-03-22T01:34:33;28.85;;;23.92;;
25639;SDS011;13497;48.322;16.204;2024-03-22T01:37:00;32.25;;;24.05;;
25639;SDS011;13497;48.322;16.204;2024-03-22T01:39:25;29.58;;;24.60;;
25639;SDS011;13497;48.322;16.204;2024-03-22T01:41:51;35.00;;;27.33;;
25639;SDS011;13497;48.322;16.204;2024-03-22T01:44:17;32.15;;;27.00;;
25639;SDS011;13497;48.322;16.204;2024-03-22T01:46:43;31.23;;;23.95;;
25639;SDS011;13497;48.322;16.204;2024-03-22T01:49:11;31.10;;;26.05;;
25639;SDS011;13497;48.322;16.204;2024-03-22T01:51:39;29.27;;;24.33;;
25639;SDS011;13497;48.322;16.204;2024-03-22T01:54:05;27.13;;;18.10;;
25639;SDS011;13497;48.322;16.204;2024-03-22T01:56:34;31.40;;;25.60;;
25639;SDS011;13497;48.322;16.204;2024-03-22T01:59:04;32.05;;;26.42;;
25639;SDS011;13497;48.322;16.204;2024-03-22T02:01:31;29.70;;;23.77;;
25639;SDS011;13497;48.322;16.204;2024-03-22T02:03:57;29.23;;;23.85;;
25639;SDS011;13497;48.322;16.204;2024-03-22T02:06:23;29.08;;;23.88;;
25639;SDS011;13497;48.322;16.204;2024-03-22T02:08:49;33.92;;;26.83;;
25639;SDS011;13497;48.322;16.204;2024-03-22T02:11:14;30.33;;;25.92;;
25639;SDS011;13497;48.322;16.204;2024-03-22T02:13:40;30.17;;;25.95;;
25639;SDS011;13497;48.322;16.204;2024-03-22T02:16:08;32.40;;;24.70;;
25639;SDS011;13497;48.322;16.204;2024-03-22T02:18:34;31.45;;;26.05;;
25639;SDS011;13497;48.322;16.204;2024-03-22T02:20:59;27.17;;;23.67;;
25639;SDS011;13497;48.322;16.204;2024-03-22T02:23:34;34.35;;;24.25;;
25639;SDS011;13497;48.322;16.204;2024-03-22T02:26:01;31.85;;;26.55;;
25639;SDS011;13497;48.322;16.204;2024-03-22T02:28:28;31.52;;;24.63;;
25639;SDS011;13497;48.322;16.204;2024-03-22T02:30:54;33.88;;;29.02;;
25639;SDS011;13497;48.322;16.204;2024-03-22T02:33:19;30.15;;;24.60;;
25639;SDS011;13497;48.322;16.204;2024-03-22T02:35:46;29.17;;;25.83;;
25639;SDS011;13497;48.322;16.204;2024-03-22T02:38:12;30.98;;;26.02;;
25639;SDS011;13497;48.322;16.204;2024-03-22T02:40:38;34.83;;;25.80;;
25639;SDS011;13497;48.322;16.204;2024-03-22T02:43:03;31.65;;;26.50;;
25639;SDS011;13497;48.322;16.204;2024-03-22T02:45:29;32.08;;;25.77;;
25639;SDS011;13497;48.322;16.204;2024-03-22T02:50:21;31.25;;;24.60;;
25639;SDS011;13497;48.322;16.204;2024-03-22T02:52:48;33.13;;;25.98;;
25639;SDS011;13497;48.322;16.204;2024-03-22T02:55:14;37.55;;;29.45;;
25639;SDS011;13497;48.322;16.204;2024-03-22T02:57:39;33.08;;;29.20;;
25639;SDS011;13497;48.322;16.204;2024-03-22T03:00:05;36.53;;;25.95;;
25639;SDS011;13497;48.322;16.204;2024-03-22T03:02:31;31.52;;;28.13;;
25639;SDS011;13497;48.322;16.204;2024-03-22T03:04:57;31.38;;;26.70;;
25639;SDS011;13497;48.322;16.204;2024-03-22T03:07:23;29.23;;;24.67;;
25639;SDS011;13497;48.322;16.204;2024-03-22T03:09:49;28.65;;;23.67;;
25639;SDS011;13497;48.322;16.204;2024-03-22T03:12:15;31.23;;;22.42;;
25639;SDS011;13497;48.322;16.204;2024-03-22T03:14:40;29.90;;;22.00;;
25639;SDS011;13497;48.322;16.204;2024-03-22T03:17:07;32.85;;;24.13;;
25639;SDS011;13497;48.322;16.204;2024-03-22T03:19:32;31.30;;;26.45;;
25639;SDS011;13497;48.322;16.204;2024-03-22T03:21:58;26.90;;;21.27;;
25639;SDS011;13497;48.322;16.204;2024-03-22T03:24:24;30.20;;;25.73;;
25639;SDS011;13497;48.322;16.204;2024-03-22T03:26:49;32.17;;;25.08;;
25639;SDS011;13497;48.322;16.204;2024-03-22T03:29:15;31.77;;;19.45;;
25639;SDS011;13497;48.322;16.204;2024-03-22T03:31:41;25.40;;;17.70;;
25639;SDS011;13497;48.322;16.204;2024-03-22T03:34:06;34.25;;;25.90;;
25639;SDS011;13497;48.322;16.204;2024-03-22T03:36:32;32.92;;;25.42;;
25639;SDS011;13497;48.322;16.204;2024-03-22T03:38:57;31.70;;;24.35;;
25639;SDS011;13497;48.322;16.204;2024-03-22T03:41:23;35.60;;;25.13;;
25639;SDS011;13497;48.322;16.204;2024-03-22T03:43:49;32.88;;;27.85;;
25639;SDS011;13497;48.322;16.204;2024-03-22T03:46:14;33.05;;;28.75;;
25639;SDS011;13497;48.322;16.204;2024-03-22T03:48:40;29.27;;;21.80;;
25639;SDS011;13497;48.322;16.204;2024-03-22T03:51:06;34.08;;;20.90;;
25639;SDS011;13497;48.322;16.204;2024-03-22T03:53:31;30.05;;;26.63;;
25639;SDS011;13497;48.322;16.204;2024-03-22T03:55:57;30.63;;;26.50;;
25639;SDS011;13497;48.322;16.204;2024-03-22T03:58:22;35.97;;;26.75;;
25639;SDS011;13497;48.322;16.204;2024-03-22T04:00:48;36.90;;;26.38;;
25639;SDS011;13497;48.322;16.204;2024-03-22T04:03:14;32.22;;;26.30;;
25639;SDS011;13497;48.322;16.204;2024-03-22T04:05:39;39.58;;;25.13;;
25639;SDS011;13497;48.322;16.204;2024-03-22T04:08:05;35.35;;;25.55;;
25639;SDS011;13497;48.322;16.204;2024-03-22T04:10:31;34.78;;;26.25;;
25639;SDS011;13497;48.322;16.204;2024-03-22T04:12:57;35.17;;;26.23;;
25639;SDS011;13497;48.322;16.204;2024-03-22T04:15:23;32.92;;;26.70;;
25639;SDS011;13497;48.322;16.204;2024-03-22T04:17:49;35.08;;;28.95;;
25639;SDS011;13497;48.322;16.204;2024-03-22T04:20:14;35.53;;;26.52;;
25639;SDS011;13497;48.322;16.204;2024-03-22T04:22:40;39.90;;;26.67;;
25639;SDS011;13497;48.322;16.204;2024-03-22T04:25:06;40.88;;;26.33;;
25639;SDS011;13497;48.322;16.204;2024-03-22T04:27:35;40.00;;;30.38;;
25639;SDS011;13497;48.322;16.204;2024-03-22T04:30:01;37.40;;;27.85;;
25639;SDS011;13497;48.322;16.204;2024-03-22T04:32:27;34.85;;;29.90;;
25639;SDS011;13497;48.322;16.204;2024-03-22T04:34:53;37.00;;;26.35;;
25639;SDS011;13497;48.322;16.204;2024-03-22T04:37:20;34.08;;;27.23;;
25639;SDS011;13497;48.322;16.204;2024-03-22T04:39:46;38.10;;;29.80;;
25639;SDS011;13497;48.322;16.204;2024-03-22T04:42:11;37.92;;;26.52;;
25639;SDS011;13497;48.322;16.204;2024-03-22T04:44:37;37.13;;;26.42;;
25639;SDS011;13497;48.322;16.204;2024-03-22T04:47:02;33.20;;;20.70;;
25639;SDS011;13497;48.322;16.204;2024-03-22T04:49:28;37.10;;;26.25;;
25639;SDS011;13497;48.322;16.204;2024-03-22T04:51:55;40.05;;;27.40;;
25639;SDS011;13497;48.322;16.204;2024-03-22T04:54:20;35.13;;;28.10;;
25639;SDS011;13497;48.322;16.204;2024-03-22T04:56:46;33.67;;;19.75;;
25639;SDS011;13497;48.322;16.204;2024-03-22T04:59:11;36.55;;;25.13;;
25639;SDS011;13497;48.322;16.204;2024-03-22T05:01:37;35.13;;;26.30;;
25639;SDS011;13497;48.322;16.204;2024-03-22T05:04:03;38.08;;;27.58;;
25639;SDS011;13497;48.322;16.204;2024-03-22T05:06:28;41.28;;;27.23;;
25639;SDS011;13497;48.322;16.204;2024-03-22T05:08:54;36.58;;;27.48;;
25639;SDS011;13497;48.322;16.204;2024-03-22T05:11:20;34.00;;;20.50;;
25639;SDS011;13497;48.322;16.204;2024-03-22T05:13:45;35.13;;;25.90;;
25639;SDS011;13497;48.322;16.204;2024-03-22T05:16:11;40.13;;;27.75;;
25639;SDS011;13497;48.322;16.204;2024-03-22T05:18:37;37.38;;;27.45;;
25639;SDS011;13497;48.322;16.204;2024-03-22T05:23:29;39.33;;;25.95;;
25639;SDS011;13497;48.322;16.204;2024-03-22T05:25:55;35.83;;;26.30;;
25639;SDS011;13497;48.322;16.204;2024-03-22T05:28:21;35.92;;;28.45;;
25639;SDS011;13497;48.322;16.204;2024-03-22T05:30:46;37.53;;;27.38;;
25639;SDS011;13497;48.322;16.204;2024-03-22T05:33:12;49.25;;;30.40;;
25639;SDS011;13497;48.322;16.204;2024-03-22T05:35:38;33.72;;;26.05;;
25639;SDS011;13497;48.322;16.204;2024-03-22T05:38:04;37.15;;;24.00;;
25639;SDS011;13497;48.322;16.204;2024-03-22T05:40:29;36.47;;;25.30;;
25639;SDS011;13497;48.322;16.204;2024-03-22T05:42:56;51.97;;;28.30;;
25639;SDS011;13497;48.322;16.204;2024-03-22T05:45:21;36.88;;;26.67;;
25639;SDS011;13497;48.322;16.204;2024-03-22T05:47:47;39.70;;;30.00;;
25639;SDS011;13497;48.322;16.204;2024-03-22T05:50:13;36.90;;;29.80;;
25639;SDS011;13497;48.322;16.204;2024-03-22T05:52:39;39.83;;;26.80;;
25639;SDS011;13497;48.322;16.204;2024-03-22T05:55:05;40.70;;;31.50;;
25639;SDS011;13497;48.322;16.204;2024-03-22T05:57:32;38.22;;;27.67;;
25639;SDS011;13497;48.322;16.204;2024-03-22T05:59:57;49.88;;;28.38;;
25639;SDS011;13497;48.322;16.204;2024-03-22T06:02:23;41.25;;;27.17;;
25639;SDS011;13497;48.322;16.204;2024-03-22T06:04:48;42.75;;;27.80;;
25639;SDS011;13497;48.322;16.204;2024-03-22T06:07:14;38.95;;;27.77;;
25639;SDS011;13497;48.322;16.204;2024-03-22T06:09:42;44.17;;;29.65;;
25639;SDS011;13497;48.322;16.204;2024-03-22T06:12:14;41.70;;;29.02;;
25639;SDS011;13497;48.322;16.204;2024-03-22T06:14:41;41.30;;;26.35;;
25639;SDS011;13497;48.322;16.204;2024-03-22T06:17:07;37.53;;;28.90;;
25639;SDS011;13497;48.322;16.204;2024-03-22T06:19:34;40.47;;;28.48;;
25639;SDS011;13497;48.322;16.204;2024-03-22T06:22:00;36.25;;;26.35;;
25639;SDS011;13497;48.322;16.204;2024-03-22T06:24:27;40.72;;;27.67;;
25639;SDS011;13497;48.322;16.204;2024-03-22T06:26:53;42.40;;;29.33;;
25639;SDS011;13497;48.322;16.204;2024-03-22T06:29:19;39.47;;;29.50;;
25639;SDS011;13497;48.322;16.204;2024-03-22T06:31:44;43.05;;;30.48;;
25639;SDS011;13497;48.322;16.204;2024-03-22T06:34:10;43.85;;;29.23;;
25639;SDS011;13497;48.322;16.204;2024-03-22T06:36:36;47.00;;;29.67;;
25639;SDS011;13497;48.322;16.204;2024-03-22T06:39:01;44.30;;;29.48;;
25639;SDS011;13497;48.322;16.204;2024-03-22T06:41:32;40.05;;;28.15;;
25639;SDS011;13497;48.322;16.204;2024-03-22T06:46:24;47.53;;;28.98;;
25639;SDS011;13497;48.322;16.204;2024-03-22T06:48:50;45.72;;;28.67;;
25639;SDS011;13497;48.322;16.204;2024-03-22T06:51:17;46.13;;;33.63;;
25639;SDS011;13497;48.322;16.204;2024-03-22T06:53:43;55.85;;;28.17;;
25639;SDS011;13497;48.322;16.204;2024-03-22T06:56:10;48.00;;;31.95;;
25639;SDS011;13497;48.322;16.204;2024-03-22T06:58:36;43.03;;;30.02;;
25639;SDS011;13497;48.322;16.204;2024-03-22T07:01:03;48.58;;;34.42;;
25639;SDS011;13497;48.322;16.204;2024-03-22T07:03:29;50.40;;;36.13;;
25639;SDS011;13497;48.322;16.204;2024-03-22T07:08:22;42.42;;;30.20;;
25639;SDS011;13497;48.322;16.204;2024-03-22T07:10:48;46.20;;;32.17;;
25639;SDS011;13497;48.322;16.204;2024-03-22T07:13:14;49.20;;;32.38;;
25639;SDS011;13497;48.322;16.204;2024-03-22T07:15:39;47.90;;;31.20;;
25639;SDS011;13497;48.322;16.204;2024-03-22T07:18:05;47.75;;;31.25;;
25639;SDS011;13497;48.322;16.204;2024-03-22T07:20:31;50.63;;;32.28;;
25639;SDS011;13497;48.322;16.204;2024-03-22T07:22:56;52.55;;;32.03;;
25639;SDS011;13497;48.322;16.204;2024-03-22T07:25:22;54.35;;;32.70;;
25639;SDS011;13497;48.322;16.204;2024-03-22T07:27:48;57.45;;;35.33;;
25639;SDS011;13497;48.322;16.204;2024-03-22T07:30:14;49.15;;;31.02;;
25639;SDS011;13497;48.322;16.204;2024-03-22T07:32:40;50.80;;;34.13;;
25639;SDS011;13497;48.322;16.204;2024-03-22T07:35:05;50.15;;;33.90;;
25639;SDS011;13497;48.322;16.204;2024-03-22T07:37:32;49.05;;;34.38;;
25639;SDS011;13497;48.322;16.204;2024-03-22T07:39:59;52.13;;;32.20;;
25639;SDS011;13497;48.322;16.204;2024-03-22T07:42:25;55.78;;;35.28;;
25639;SDS011;13497;48.322;16.204;2024-03-22T07:44:51;53.58;;;33.60;;
25639;SDS011;13497;48.322;16.204;2024-03-22T07:47:16;51.55;;;31.58;;
25639;SDS011;13497;48.322;16.204;2024-03-22T07:49:42;54.05;;;32.97;;
25639;SDS011;13497;48.322;16.204;2024-03-22T07:52:08;51.53;;;33.22;;
25639;SDS011;13497;48.322;16.204;2024-03-22T07:54:34;50.97;;;31.85;;
25639;SDS011;13497;48.322;16.204;2024-03-22T07:56:59;54.40;;;33.17;;
25639;SDS011;13497;48.322;16.204;2024-03-22T07:59:25;59.50;;;37.25;;
25639;SDS011;13497;48.322;16.204;2024-03-22T08:01:51;54.67;;;34.85;;
25639;SDS011;13497;48.322;16.204;2024-03-22T08:04:16;53.95;;;33.67;;
25639;SDS011;13497;48.322;16.204;2024-03-22T08:06:42;53.67;;;34.60;;
25639;SDS011;13497;48.322;16.204;2024-03-22T08:09:08;52.30;;;34.25;;
25639;SDS011;13497;48.322;16.204;2024-03-22T08:11:34;59.63;;;35.58;;
25639;SDS011;13497;48.322;16.204;2024-03-22T08:13:59;61.47;;;33.15;;
25639;SDS011;13497;48.322;16.204;2024-03-22T08:16:31;51.58;;;33.17;;
25639;SDS011;13497;48.322;16.204;2024-03-22T08:18:57;57.75;;;35.65;;
25639;SDS011;13497;48.322;16.204;2024-03-22T08:21:23;54.72;;;36.88;;
25639;SDS011;13497;48.322;16.204;2024-03-22T08:23:49;51.22;;;31.27;;
25639;SDS011;13497;48.322;16.204;2024-03-22T08:28:41;48.80;;;30.88;;
25639;SDS011;13497;48.322;16.204;2024-03-22T08:31:07;53.00;;;32.15;;
25639;SDS011;13497;48.322;16.204;2024-03-22T08:33:33;43.53;;;29.48;;
25639;SDS011;13497;48.322;16.204;2024-03-22T08:35:59;45.67;;;28.05;;
25639;SDS011;13497;48.322;16.204;2024-03-22T08:38:26;56.53;;;32.40;;
25639;SDS011;13497;48.322;16.204;2024-03-22T08:40:52;52.95;;;32.88;;
25639;SDS011;13497;48.322;16.204;2024-03-22T08:43:17;44.88;;;30.38;;
25639;SDS011;13497;48.322;16.204;2024-03-22T08:45:43;43.10;;;30.15;;
25639;SDS011;13497;48.322;16.204;2024-03-22T08:48:09;51.38;;;32.25;;
25639;SDS011;13497;48.322;16.204;2024-03-22T08:50:34;46.15;;;31.50;;
25639;SDS011;13497;48.322;16.204;2024-03-22T08:53:00;44.00;;;28.63;;
25639;SDS011;13497;48.322;16.204;2024-03-22T08:55:29;48.30;;;31.50;;
25639;SDS011;13497;48.322;16.204;2024-03-22T08:57:56;46.67;;;35.10;;
25639;SDS011;13497;48.322;16.204;2024-03-22T09:00:21;42.85;;;31.27;;
25639;SDS011;13497;48.322;16.204;2024-03-22T09:02:47;53.50;;;28.95;;
25639;SDS011;13497;48.322;16.204;2024-03-22T09:05:12;39.72;;;26.00;;
25639;SDS011;13497;48.322;16.204;2024-03-22T09:07:38;43.53;;;29.52;;
25639;SDS011;13497;48.322;16.204;2024-03-22T09:10:04;46.13;;;29.92;;
25639;SDS011;13497;48.322;16.204;2024-03-22T09:12:31;41.90;;;27.52;;
25639;SDS011;13497;48.322;16.204;2024-03-22T09:14:57;46.45;;;26.65;;
25639;SDS011;13497;48.322;16.204;2024-03-22T09:17:22;36.55;;;22.58;;
25639;SDS011;13497;48.322;16.204;2024-03-22T09:19:48;38.67;;;28.75;;
25639;SDS011;13497;48.322;16.204;2024-03-22T09:22:14;38.70;;;28.63;;
25639;SDS011;13497;48.322;16.204;2024-03-22T09:24:40;37.40;;;25.85;;
25639;SDS011;13497;48.322;16.204;2024-03-22T09:27:06;36.15;;;24.65;;
25639;SDS011;13497;48.322;16.204;2024-03-22T09:29:35;38.08;;;27.33;;
25639;SDS011;13497;48.322;16.204;2024-03-22T09:32:02;37.55;;;26.63;;
25639;SDS011;13497;48.322;16.204;2024-03-22T09:34:28;37.35;;;23.70;;
25639;SDS011;13497;48.322;16.204;2024-03-22T09:36:57;47.15;;;25.23;;
25639;SDS011;13497;48.322;16.204;2024-03-22T09:39:22;29.38;;;21.08;;
25639;SDS011;13497;48.322;16.204;2024-03-22T09:41:48;34.83;;;22.25;;
25639;SDS011;13497;48.322;16.204;2024-03-22T09:44:17;35.70;;;23.35;;
25639;SDS011;13497;48.322;16.204;2024-03-22T09:46:44;33.97;;;22.38;;
25639;SDS011;13497;48.322;16.204;2024-03-22T09:49:12;34.72;;;23.40;;
25639;SDS011;13497;48.322;16.204;2024-03-22T09:51:39;29.27;;;18.42;;
25639;SDS011;13497;48.322;16.204;2024-03-22T09:54:06;30.75;;;20.50;;
25639;SDS011;13497;48.322;16.204;2024-03-22T09:56:33;30.00;;;22.75;;
25639;SDS011;13497;48.322;16.204;2024-03-22T09:59:00;28.52;;;20.88;;
25639;SDS011;13497;48.322;16.204;2024-03-22T10:01:26;38.92;;;21.98;;
25639;SDS011;13497;48.322;16.204;2024-03-22T10:03:52;33.30;;;24.85;;
25639;SDS011;13497;48.322;16.204;2024-03-22T10:06:19;42.70;;;23.00;;
25639;SDS011;13497;48.322;16.204;2024-03-22T10:08:45;39.55;;;21.92;;
25639;SDS011;13497;48.322;16.204;2024-03-22T10:11:11;34.50;;;23.50;;
25639;SDS011;13497;48.322;16.204;2024-03-22T10:13:37;32.40;;;22.90;;
25639;SDS011;13497;48.322;16.204;2024-03-22T10:16:03;34.13;;;23.75;;
25639;SDS011;13497;48.322;16.204;2024-03-22T10:18:31;31.30;;;20.77;;
25639;SDS011;13497;48.322;16.204;2024-03-22T10:21:04;29.35;;;20.50;;
25639;SDS011;13497;48.322;16.204;2024-03-22T10:23:30;33.63;;;20.40;;
25639;SDS011;13497;48.322;16.204;2024-03-22T10:25:57;33.38;;;20.27;;
25639;SDS011;13497;48.322;16.204;2024-03-22T10:28:24;29.08;;;22.88;;
25639;SDS011;13497;48.322;16.204;2024-03-22T10:30:52;29.05;;;23.45;;
25639;SDS011;13497;48.322;16.204;2024-03-22T10:33:19;29.95;;;22.23;;
25639;SDS011;13497;48.322;16.204;2024-03-22T10:35:47;31.25;;;20.65;;
25639;SDS011;13497;48.322;16.204;2024-03-22T10:38:19;27.23;;;20.25;;
25639;SDS011;13497;48.322;16.204;2024-03-22T10:43:12;23.40;;;14.82;;
25639;SDS011;13497;48.322;16.204;2024-03-22T10:45:38;25.52;;;19.05;;
25639;SDS011;13497;48.322;16.204;2024-03-22T10:48:07;30.42;;;17.73;;
25639;SDS011;13497;48.322;16.204;2024-03-22T10:50:35;29.38;;;19.20;;
25639;SDS011;13497;48.322;16.204;2024-03-22T10:53:06;29.65;;;17.92;;
25639;SDS011;13497;48.322;16.204;2024-03-22T10:55:38;27.30;;;18.27;;
25639;SDS011;13497;48.322;16.204;2024-03-22T10:58:22;28.58;;;19.15;;
25639;SDS011;13497;48.322;16.204;2024-03-22T11:00:53;25.52;;;19.05;;
25639;SDS011;13497;48.322;16.204;2024-03-22T11:03:21;23.40;;;18.50;;
25639;SDS011;13497;48.322;16.204;2024-03-22T11:05:53;25.10;;;16.23;;
25639;SDS011;13497;48.322;16.204;2024-03-22T11:08:24;26.80;;;20.35;;
25639;SDS011;13497;48.322;16.204;2024-03-22T11:10:57;21.90;;;17.55;;
25639;SDS011;13497;48.322;16.204;2024-03-22T11:13:22;24.00;;;16.40;;
25639;SDS011;13497;48.322;16.204;2024-03-22T11:15:51;24.67;;;16.33;;
25639;SDS011;13497;48.322;16.204;2024-03-22T11:18:17;22.33;;;15.50;;
25639;SDS011;13497;48.322;16.204;2024-03-22T11:20:43;22.85;;;17.25;;
25639;SDS011;13497;48.322;16.204;2024-03-22T11:23:12;25.38;;;17.00;;
25639;SDS011;13497;48.322;16.204;2024-03-22T11:25:38;20.63;;;15.02;;
25639;SDS011;13497;48.322;16.204;2024-03-22T11:28:04;22.65;;;16.55;;
25639;SDS011;13497;48.322;16.204;2024-03-22T11:30:30;24.27;;;16.33;;
25639;SDS011;13497;48.322;16.204;2024-03-22T11:32:57;23.33;;;17.88;;
25639;SDS011;13497;48.322;16.204;2024-03-22T11:35:25;23.23;;;17.88;;
25639;SDS011;13497;48.322;16.204;2024-03-22T11:37:51;24.60;;;19.20;;
25639;SDS011;13497;48.322;16.204;2024-03-22T11:40:17;21.80;;;16.02;;
25639;SDS011;13497;48.322;16.204;2024-03-22T11:42:44;19.52;;;14.43;;
25639;SDS011;13497;48.322;16.204;2024-03-22T11:45:14;20.20;;;16.45;;
25639;SDS011;13497;48.322;16.204;2024-03-22T11:47:43;22.25;;;17.80;;
25639;SDS011;13497;48.322;16.204;2024-03-22T11:50:09;20.13;;;14.93;;
25639;SDS011;13497;48.322;16.204;2024-03-22T11:52:40;21.63;;;15.50;;
25639;SDS011;13497;48.322;16.204;2024-03-22T11:55:06;19.52;;;12.00;;
25639;SDS011;13497;48.322;16.204;2024-03-22T11:57:32;22.40;;;15.77;;
25639;SDS011;13497;48.322;16.204;2024-03-22T11:59:58;22.33;;;14.85;;
25639;SDS011;13497;48.322;16.204;2024-03-22T12:02:25;21.15;;;14.32;;
25639;SDS011;13497;48.322;16.204;2024-03-22T12:04:51;22.65;;;17.05;;
25639;SDS011;13497;48.322;16.204;2024-03-22T12:07:17;21.70;;;12.38;;
25639;SDS011;13497;48.322;16.204;2024-03-22T12:09:43;22.98;;;15.27;;
25639;SDS011;13497;48.322;16.204;2024-03-22T12:12:10;18.75;;;14.05;;
25639;SDS011;13497;48.322;16.204;2024-03-22T12:14:37;19.02;;;9.10;;
25639;SDS011;13497;48.322;16.204;2024-03-22T12:17:06;19.13;;;17.10;;
25639;SDS011;13497;48.322;16.204;2024-03-22T12:21:58;19.10;;;13.63;;
25639;SDS011;13497;48.322;16.204;2024-03-22T12:24:24;19.83;;;14.95;;
25639;SDS011;13497;48.322;16.204;2024-03-22T12:26:50;14.20;;;8.43;;
25639;SDS011;13497;48.322;16.204;2024-03-22T12:31:42;16.40;;;12.55;;
25639;SDS011;13497;48.322;16.204;2024-03-22T12:34:08;15.13;;;12.93;;
25639;SDS011;13497;48.322;16.204;2024-03-22T12:36:34;17.27;;;13.00;;
25639;SDS011;13497;48.322;16.204;2024-03-22T12:39:00;18.02;;;9.20;;
25639;SDS011;13497;48.322;16.204;2024-03-22T12:41:25;21.60;;;13.90;;
25639;SDS011;13497;48.322;16.204;2024-03-22T12:43:52;16.92;;;12.95;;
25639;SDS011;13497;48.322;16.204;2024-03-22T12:46:18;17.98;;;12.65;;
25639;SDS011;13497;48.322;16.204;2024-03-22T12:48:43;15.52;;;11.50;;
25639;SDS011;13497;48.322;16.204;2024-03-22T12:51:09;14.70;;;12.60;;
25639;SDS011;13497;48.322;16.204;2024-03-22T12:53:34;17.23;;;14.30;;
25639;SDS011;13497;48.322;16.204;2024-03-22T12:56:00;16.27;;;13.18;;
25639;SDS011;13497;48.322;16.204;2024-03-22T12:58:27;18.02;;;15.38;;
25639;SDS011;13497;48.322;16.204;2024-03-22T13:00:53;16.73;;;12.65;;
25639;SDS011;13497;48.322;16.204;2024-03-22T13:03:19;19.33;;;11.85;;
25639;SDS011;13497;48.322;16.204;2024-03-22T13:05:45;13.65;;;11.95;;
25639;SDS011;13497;48.322;16.204;2024-03-22T13:08:10;14.60;;;12.55;;
25639;SDS011;13497;48.322;16.204;2024-03-22T13:10:36;19.20;;;8.82;;
25639;SDS011;13497;48.322;16.204;2024-03-22T13:13:02;14.52;;;12.57;;
25639;SDS011;13497;48.322;16.204;2024-03-22T13:15:28;16.88;;;10.65;;
25639;SDS011;13497;48.322;16.204;2024-03-22T13:17:55;23.85;;;11.70;;
25639;SDS011;13497;48.322;16.204;2024-03-22T13:20:21;15.35;;;11.48;;
25639;SDS011;13497;48.322;16.204;2024-03-22T13:22:47;15.52;;;11.57;;
25639;SDS011;13497;48.322;16.204;2024-03-22T13:25:12;16.90;;;12.32;;
25639;SDS011;13497;48.322;16.204;2024-03-22T13:27:38;13.13;;;11.77;;
25639;SDS011;13497;48.322;16.204;2024-03-22T13:30:07;16.13;;;14.45;;
25639;SDS011;13497;48.322;16.204;2024-03-22T13:32:37;17.27;;;12.70;;
25639;SDS011;13497;48.322;16.204;2024-03-22T13:37:29;17.00;;;11.25;;
25639;SDS011;13497;48.322;16.204;2024-03-22T13:39:55;15.25;;;12.85;;
25639;SDS011;13497;48.322;16.204;2024-03-22T13:42:21;19.73;;;11.55;;
25639;SDS011;13497;48.322;16.204;2024-03-22T13:44:46;12.73;;;9.20;;
25639;SDS011;13497;48.322;16.204;2024-03-22T13:47:12;16.73;;;11.63;;
25639;SDS011;13497;48.322;16.204;2024-03-22T13:49:38;14.55;;;10.98;;
25639;SDS011;13497;48.322;16.204;2024-03-22T13:52:06;15.85;;;11.60;;
25639;SDS011;13497;48.322;16.204;2024-03-22T13:54:32;14.60;;;10.77;;
25639;SDS011;13497;48.322;16.204;2024-03-22T13:56:58;12.15;;;10.30;;
25639;SDS011;13497;48.322;16.204;2024-03-22T13:59:25;13.77;;;4.90;;
25639;SDS011;13497;48.322;16.204;2024-03-22T14:01:51;13.88;;;12.35;;
25639;SDS011;13497;48.322;16.204;2024-03-22T14:04:17;14.77;;;10.95;;
25639;SDS011;13497;48.322;16.204;2024-03-22T14:06:44;14.90;;;11.05;;
25639;SDS011;13497;48.322;16.204;2024-03-22T14:09:10;13.35;;;10.27;;
25639;SDS011;13497;48.322;16.204;2024-03-22T14:11:38;13.55;;;5.47;;
25639;SDS011;13497;48.322;16.204;2024-03-22T14:14:04;16.27;;;10.95;;
25639;SDS011;13497;48.322;16.204;2024-03-22T14:16:30;13.68;;;10.43;;
25639;SDS011;13497;48.322;16.204;2024-03-22T14:18:55;13.73;;;11.82;;
25639;SDS011;13497;48.322;16.204;2024-03-22T14:21:21;12.98;;;11.63;;
25639;SDS011;13497;48.322;16.204;2024-03-22T14:23:47;13.98;;;10.77;;
25639;SDS011;13497;48.322;16.204;2024-03-22T14:26:17;11.35;;;10.15;;